createdAt,value
2018-06-12T00:00:57.938Z,0.00
2018-06-12T00:01:58.009Z,0.00
2018-06-12T00:02:58.077Z,0.00
2018-06-12T00:03:58.137Z,0.00
2018-06-12T00:04:58.201Z,0.00
2018-06-12T00:05:58.265Z,0.00
2018-06-12T00:06:58.353Z,0.00
2018-06-12T00:07:58.401Z,0.00
2018-06-12T00:08:58.465Z,0.00
2018-06-12T00:09:58.530Z,0.00
2018-06-12T00:10:58.597Z,0.00
2018-06-12T00:11:58.670Z,0.00
2018-06-12T00:12:58.734Z,0.00
2018-06-12T00:13:58.794Z,0.00
2018-06-12T00:14:58.865Z,0.00
2018-06-12T00:15:58.926Z,0.00
2018-06-12T00:16:58.997Z,0.00
2018-06-12T00:17:59.062Z,0.00
2018-06-12T00:18:59.126Z,0.00
2018-06-12T00:19:59.193Z,0.00
2018-06-12T00:20:59.254Z,0.00
2018-06-12T00:21:59.351Z,0.00
2018-06-12T00:22:59.389Z,0.00
2018-06-12T00:23:59.454Z,0.00
2018-06-12T00:24:59.521Z,0.00
2018-06-12T00:25:59.586Z,0.00
2018-06-12T00:26:59.658Z,0.00
2018-06-12T00:27:59.722Z,0.00
2018-06-12T00:28:59.782Z,0.00
2018-06-12T00:29:59.846Z,0.00
2018-06-12T00:30:59.915Z,0.00
2018-06-12T00:31:59.982Z,0.00
2018-06-12T00:33:00.051Z,0.00
2018-06-12T00:34:00.111Z,0.00
2018-06-12T00:35:00.175Z,0.00
2018-06-12T00:36:00.243Z,0.00
2018-06-12T00:37:00.309Z,0.00
2018-06-12T00:38:00.391Z,0.00
2018-06-12T00:39:00.439Z,0.00
2018-06-12T00:40:00.503Z,0.00
2018-06-12T00:41:00.571Z,0.00
2018-06-12T00:42:00.639Z,0.00
2018-06-12T00:43:00.713Z,0.00
2018-06-12T00:44:00.772Z,0.00
2018-06-12T00:45:00.831Z,0.00
2018-06-12T00:46:00.899Z,0.00
2018-06-12T00:47:00.966Z,0.00
2018-06-12T00:48:01.035Z,0.00
2018-06-12T00:49:01.100Z,0.00
2018-06-12T00:50:01.159Z,0.00
2018-06-12T00:51:01.227Z,0.00
2018-06-12T00:52:01.291Z,0.00
2018-06-12T00:53:01.363Z,0.00
2018-06-12T00:54:01.427Z,0.00
2018-06-12T00:55:01.487Z,0.00
2018-06-12T00:56:01.552Z,0.00
2018-06-12T00:57:01.619Z,0.00
2018-06-12T00:58:01.694Z,0.00
2018-06-12T00:59:01.755Z,0.00
2018-06-12T01:00:01.819Z,0.00
2018-06-12T01:01:01.880Z,0.00
2018-06-12T01:02:01.948Z,0.00
2018-06-12T01:03:02.020Z,0.00
2018-06-12T01:04:02.084Z,0.00
2018-06-12T01:05:02.145Z,0.00
2018-06-12T01:06:02.207Z,0.00
2018-06-12T01:07:02.275Z,0.00
2018-06-12T01:08:02.347Z,0.00
2018-06-12T01:09:02.412Z,0.00
2018-06-12T01:10:02.472Z,0.00
2018-06-12T01:11:02.535Z,0.00
2018-06-12T01:12:02.600Z,0.00
2018-06-12T01:13:02.672Z,0.00
2018-06-12T01:14:02.741Z,0.00
2018-06-12T01:15:02.801Z,0.00
2018-06-12T01:16:02.863Z,0.00
2018-06-12T01:17:02.928Z,0.00
2018-06-12T01:18:03.000Z,0.00
2018-06-12T01:19:03.068Z,0.00
2018-06-12T01:20:03.127Z,0.00
2018-06-12T01:21:03.193Z,0.00
2018-06-12T01:22:03.257Z,0.00
2018-06-12T01:23:03.364Z,0.00
2018-06-12T01:24:03.389Z,0.00
2018-06-12T01:25:03.453Z,0.00
2018-06-12T01:26:03.521Z,0.00
2018-06-12T01:27:03.585Z,0.00
2018-06-12T01:28:03.661Z,0.00
2018-06-12T01:29:03.725Z,0.00
2018-06-12T01:30:03.781Z,0.00
2018-06-12T01:31:03.845Z,0.00
2018-06-12T01:32:03.912Z,0.00
2018-06-12T01:33:03.985Z,0.00
2018-06-12T01:34:04.049Z,0.00
2018-06-12T01:35:04.111Z,0.00
2018-06-12T01:36:04.173Z,0.00
2018-06-12T01:37:04.238Z,0.00
2018-06-12T01:38:04.321Z,0.00
2018-06-12T01:39:04.370Z,0.00
2018-06-12T01:40:04.434Z,0.00
2018-06-12T01:41:04.497Z,0.00
2018-06-12T01:42:04.569Z,0.00
2018-06-12T01:43:04.640Z,0.00
2018-06-12T01:44:04.702Z,0.00
2018-06-12T01:45:04.762Z,0.00
2018-06-12T01:46:04.828Z,0.00
2018-06-12T01:47:04.890Z,0.00
2018-06-12T01:48:04.962Z,0.00
2018-06-12T01:49:05.030Z,0.00
2018-06-12T01:50:05.086Z,0.00
2018-06-12T01:51:05.154Z,0.00
2018-06-12T01:52:05.219Z,0.00
2018-06-12T01:53:05.395Z,0.00
2018-06-12T01:54:05.350Z,0.00
2018-06-12T01:55:05.414Z,0.00
2018-06-12T01:56:05.479Z,0.00
2018-06-12T01:57:05.546Z,0.00
2018-06-12T01:58:05.618Z,0.00
2018-06-12T01:59:05.683Z,0.00
2018-06-12T02:00:05.743Z,0.00
2018-06-12T02:01:05.809Z,0.00
2018-06-12T02:02:05.875Z,0.00
2018-06-12T02:03:05.942Z,0.00
2018-06-12T02:04:06.013Z,0.00
2018-06-12T02:05:06.067Z,0.00
2018-06-12T02:06:06.135Z,0.00
2018-06-12T02:07:06.199Z,0.00
2018-06-12T02:08:06.511Z,0.00
2018-06-12T02:09:06.331Z,0.00
2018-06-12T02:10:06.395Z,0.00
2018-06-12T02:11:06.460Z,0.00
2018-06-12T02:12:06.523Z,0.00
2018-06-12T02:13:06.595Z,0.00
2018-06-12T02:14:06.665Z,0.00
2018-06-12T02:15:06.719Z,0.00
2018-06-12T02:16:06.791Z,0.00
2018-06-12T02:17:06.851Z,0.00
2018-06-12T02:18:06.926Z,0.00
2018-06-12T02:19:06.988Z,0.00
2018-06-12T02:20:07.048Z,0.00
2018-06-12T02:21:07.111Z,0.00
2018-06-12T02:22:07.176Z,0.00
2018-06-12T02:23:07.271Z,0.00
2018-06-12T02:24:07.307Z,0.00
2018-06-12T02:25:07.372Z,0.00
2018-06-12T02:26:07.440Z,0.00
2018-06-12T02:27:07.504Z,0.00
2018-06-12T02:28:07.576Z,0.00
2018-06-12T02:29:07.644Z,0.00
2018-06-12T02:30:07.700Z,0.00
2018-06-12T02:31:07.771Z,0.00
2018-06-12T02:32:07.828Z,0.00
2018-06-12T02:33:07.899Z,0.00
2018-06-12T02:34:07.964Z,0.00
2018-06-12T02:35:08.024Z,0.00
2018-06-12T02:36:08.090Z,0.00
2018-06-12T02:37:08.152Z,0.00
2018-06-12T02:38:08.247Z,0.00
2018-06-12T02:39:08.284Z,0.00
2018-06-12T02:40:08.348Z,0.00
2018-06-12T02:41:08.423Z,0.00
2018-06-12T02:42:08.480Z,0.00
2018-06-12T02:43:08.552Z,0.00
2018-06-12T02:44:08.616Z,4.00
2018-06-12T02:45:08.676Z,4.00
2018-06-12T02:46:08.740Z,0.00
2018-06-12T02:47:08.805Z,0.00
2018-06-12T02:48:08.877Z,0.00
2018-06-12T02:49:08.941Z,4.00
2018-06-12T02:50:08.997Z,4.00
2018-06-12T02:51:09.064Z,4.00
2018-06-12T02:52:09.128Z,4.00
2018-06-12T02:53:09.357Z,4.00
2018-06-12T02:54:09.261Z,4.00
2018-06-12T02:55:09.325Z,8.00
2018-06-12T02:56:09.396Z,4.00
2018-06-12T02:57:09.457Z,8.00
2018-06-12T02:58:09.529Z,8.00
2018-06-12T02:59:09.593Z,8.00
2018-06-12T03:00:09.649Z,8.00
2018-06-12T03:01:09.717Z,8.00
2018-06-12T03:02:09.780Z,12.00
2018-06-12T03:03:09.857Z,16.00
2018-06-12T03:04:09.917Z,16.00
2018-06-12T03:05:09.977Z,16.00
2018-06-12T03:06:10.042Z,16.00
2018-06-12T03:07:10.105Z,20.00
2018-06-12T03:08:10.194Z,24.00
2018-06-12T03:09:10.237Z,24.00
2018-06-12T03:10:10.302Z,24.00
2018-06-12T03:11:10.365Z,28.00
2018-06-12T03:12:10.429Z,28.00
2018-06-12T03:13:10.501Z,28.00
2018-06-12T03:14:10.572Z,32.00
2018-06-12T03:15:10.625Z,32.00
2018-06-12T03:16:10.690Z,36.00
2018-06-12T03:17:10.754Z,40.00
2018-06-12T03:18:10.826Z,40.00
2018-06-12T03:19:10.894Z,44.00
2018-06-12T03:20:10.950Z,44.00
2018-06-12T03:21:11.014Z,44.00
2018-06-12T03:22:11.081Z,48.00
2018-06-12T03:23:11.224Z,48.00
2018-06-12T03:24:11.210Z,56.00
2018-06-12T03:25:11.274Z,60.00
2018-06-12T03:26:11.341Z,60.00
2018-06-12T03:27:11.406Z,68.00
2018-06-12T03:28:11.473Z,68.00
2018-06-12T03:29:11.542Z,72.00
2018-06-12T03:30:11.597Z,80.00
2018-06-12T03:31:11.666Z,84.00
2018-06-12T03:32:11.730Z,88.00
2018-06-12T03:33:11.802Z,96.00
2018-06-12T03:34:11.866Z,100.00
2018-06-12T03:35:11.927Z,108.00
2018-06-12T03:36:11.990Z,112.00
2018-06-12T03:37:12.055Z,120.00
2018-06-12T03:38:12.119Z,124.00
2018-06-12T03:39:12.290Z,128.00
2018-06-12T03:40:12.247Z,136.00
2018-06-12T03:41:12.315Z,144.00
2018-06-12T03:42:12.379Z,152.00
2018-06-12T03:43:12.443Z,152.00
2018-06-12T03:44:12.515Z,160.00
2018-06-12T03:45:12.579Z,164.00
2018-06-12T03:46:12.639Z,164.00
2018-06-12T03:47:12.704Z,168.00
2018-06-12T03:48:12.767Z,172.00
2018-06-12T03:49:12.839Z,180.00
2018-06-12T03:50:12.903Z,188.00
2018-06-12T03:51:12.962Z,188.00
2018-06-12T03:52:13.027Z,196.00
2018-06-12T03:53:13.091Z,196.00
2018-06-12T03:54:13.267Z,200.00
2018-06-12T03:55:13.224Z,208.00
2018-06-12T03:56:13.287Z,220.00
2018-06-12T03:57:13.351Z,228.00
2018-06-12T03:58:13.416Z,240.00
2018-06-12T03:59:13.501Z,248.00
2018-06-12T04:00:13.552Z,264.00
2018-06-12T04:01:13.613Z,276.00
2018-06-12T04:02:13.675Z,288.00
2018-06-12T04:03:13.740Z,300.00
2018-06-12T04:04:13.811Z,312.00
2018-06-12T04:05:13.883Z,328.00
2018-06-12T04:06:13.936Z,348.00
2018-06-12T04:07:14.000Z,364.00
2018-06-12T04:08:14.064Z,380.00
2018-06-12T04:09:14.132Z,400.00
2018-06-12T04:10:14.220Z,416.00
2018-06-12T04:11:14.260Z,436.00
2018-06-12T04:12:14.324Z,448.00
2018-06-12T04:13:14.388Z,460.00
2018-06-12T04:14:14.458Z,476.00
2018-06-12T04:15:14.528Z,480.00
2018-06-12T04:16:14.592Z,484.00
2018-06-12T04:17:14.648Z,488.00
2018-06-12T04:18:14.716Z,500.00
2018-06-12T04:19:14.817Z,504.00
2018-06-12T04:20:14.853Z,516.00
2018-06-12T04:21:14.917Z,532.00
2018-06-12T04:22:14.977Z,544.00
2018-06-12T04:23:15.040Z,560.00
2018-06-12T04:24:15.107Z,576.00
2018-06-12T04:25:15.193Z,592.00
2018-06-12T04:26:15.239Z,604.00
2018-06-12T04:27:15.300Z,612.00
2018-06-12T04:28:15.364Z,608.00
2018-06-12T04:29:15.428Z,596.00
2018-06-12T04:30:15.505Z,584.00
2018-06-12T04:31:15.569Z,572.00
2018-06-12T04:32:15.626Z,560.00
2018-06-12T04:33:15.688Z,552.00
2018-06-12T04:34:15.756Z,544.00
2018-06-12T04:35:15.825Z,540.00
2018-06-12T04:36:15.889Z,540.00
2018-06-12T04:37:15.949Z,540.00
2018-06-12T04:38:16.013Z,540.00
2018-06-12T04:39:16.081Z,540.00
2018-06-12T04:40:16.489Z,540.00
2018-06-12T04:41:16.209Z,548.00
2018-06-12T04:42:16.278Z,556.00
2018-06-12T04:43:16.402Z,572.00
2018-06-12T04:44:16.405Z,592.00
2018-06-12T04:45:16.470Z,620.00
2018-06-12T04:46:16.550Z,648.00
2018-06-12T04:47:16.601Z,680.00
2018-06-12T04:48:16.665Z,712.00
2018-06-12T04:49:16.730Z,744.00
2018-06-12T04:50:16.793Z,776.00
2018-06-12T04:51:16.865Z,804.00
2018-06-12T04:52:16.929Z,836.00
2018-06-12T04:53:16.990Z,856.00
2018-06-12T04:54:17.054Z,872.00
2018-06-12T04:55:17.122Z,888.00
2018-06-12T04:56:17.590Z,900.00
2018-06-12T04:57:17.250Z,900.00
2018-06-12T04:58:17.314Z,900.00
2018-06-12T04:59:17.382Z,892.00
2018-06-12T05:00:17.446Z,880.00
2018-06-12T05:01:17.511Z,864.00
2018-06-12T05:02:17.726Z,844.00
2018-06-12T05:03:17.643Z,840.00
2018-06-12T05:04:17.707Z,832.00
2018-06-12T05:05:17.770Z,840.00
2018-06-12T05:06:17.836Z,852.00
2018-06-12T05:07:17.906Z,864.00
2018-06-12T05:08:17.970Z,888.00
2018-06-12T05:09:18.031Z,916.00
2018-06-12T05:10:18.095Z,948.00
2018-06-12T05:11:18.163Z,992.00
2018-06-12T05:12:18.426Z,1052.00
2018-06-12T05:13:18.292Z,1108.00
2018-06-12T05:14:18.354Z,1164.00
2018-06-12T05:15:18.423Z,1216.00
2018-06-12T05:16:18.487Z,1256.00
2018-06-12T05:17:18.559Z,1296.00
2018-06-12T05:18:18.623Z,1312.00
2018-06-12T05:19:18.682Z,1324.00
2018-06-12T05:20:18.747Z,1316.00
2018-06-12T05:21:18.811Z,1312.00
2018-06-12T05:22:18.883Z,1312.00
2018-06-12T05:23:18.951Z,1316.00
2018-06-12T05:24:19.007Z,1324.00
2018-06-12T05:25:19.071Z,1340.00
2018-06-12T05:26:19.140Z,1356.00
2018-06-12T05:27:19.452Z,1380.00
2018-06-12T05:28:19.267Z,1408.00
2018-06-12T05:29:19.331Z,1440.00
2018-06-12T05:30:19.399Z,1476.00
2018-06-12T05:31:19.465Z,1508.00
2018-06-12T05:32:19.535Z,1532.00
2018-06-12T05:33:19.599Z,1544.00
2018-06-12T05:34:19.659Z,1560.00
2018-06-12T05:35:19.723Z,1588.00
2018-06-12T05:36:19.788Z,1624.00
2018-06-12T05:37:19.860Z,1660.00
2018-06-12T05:38:19.927Z,1676.00
2018-06-12T05:39:19.984Z,1684.00
2018-06-12T05:40:20.048Z,1684.00
2018-06-12T05:41:20.116Z,1676.00
2018-06-12T05:42:20.204Z,1668.00
2018-06-12T05:43:20.251Z,1648.00
2018-06-12T05:44:20.312Z,1628.00
2018-06-12T05:45:20.381Z,1612.00
2018-06-12T05:46:20.444Z,1604.00
2018-06-12T05:47:20.515Z,1616.00
2018-06-12T05:48:20.580Z,1648.00
2018-06-12T05:49:20.636Z,1680.00
2018-06-12T05:50:20.704Z,1720.00
2018-06-12T05:51:20.768Z,1756.00
2018-06-12T05:52:20.840Z,1780.00
2018-06-12T05:53:20.905Z,1792.00
2018-06-12T05:54:20.965Z,1800.00
2018-06-12T05:55:21.030Z,1800.00
2018-06-12T05:56:21.093Z,1792.00
2018-06-12T05:57:21.173Z,1784.00
2018-06-12T05:58:21.224Z,1764.00
2018-06-12T05:59:21.293Z,1748.00
2018-06-12T06:00:21.357Z,1724.00
2018-06-12T06:01:21.457Z,1704.00
2018-06-12T06:02:21.493Z,1676.00
2018-06-12T06:03:21.557Z,1652.00
2018-06-12T06:04:21.617Z,1636.00
2018-06-12T06:05:21.683Z,1628.00
2018-06-12T06:06:21.751Z,1624.00
2018-06-12T06:07:21.821Z,1632.00
2018-06-12T06:08:21.885Z,1656.00
2018-06-12T06:09:21.949Z,1704.00
2018-06-12T06:10:22.010Z,1772.00
2018-06-12T06:11:22.074Z,1860.00
2018-06-12T06:12:22.293Z,1964.00
2018-06-12T06:13:22.205Z,2076.00
2018-06-12T06:14:22.269Z,2188.00
2018-06-12T06:15:22.338Z,2292.00
2018-06-12T06:16:22.406Z,2388.00
2018-06-12T06:17:22.474Z,2464.00
2018-06-12T06:18:22.558Z,2520.00
2018-06-12T06:19:22.598Z,2580.00
2018-06-12T06:20:22.662Z,2640.00
2018-06-12T06:21:22.733Z,2716.00
2018-06-12T06:22:22.823Z,2788.00
2018-06-12T06:23:22.874Z,2884.00
2018-06-12T06:24:22.922Z,3016.00
2018-06-12T06:25:22.990Z,3204.00
2018-06-12T06:26:23.054Z,3424.00
2018-06-12T06:27:23.142Z,3636.00
2018-06-12T06:28:23.186Z,3832.00
2018-06-12T06:29:23.251Z,3984.00
2018-06-12T06:30:23.318Z,4104.00
2018-06-12T06:31:23.385Z,4220.00
2018-06-12T06:32:23.459Z,4336.00
2018-06-12T06:33:23.522Z,4548.00
2018-06-12T06:34:23.582Z,6440.00
2018-06-12T06:35:23.646Z,5256.00
2018-06-12T06:36:23.759Z,5472.00
2018-06-12T06:37:23.790Z,11336.00
2018-06-12T06:38:23.850Z,8764.00
2018-06-12T06:39:23.910Z,7352.00
2018-06-12T06:40:23.979Z,4772.00
2018-06-12T06:41:24.042Z,3900.00
2018-06-12T06:42:24.134Z,3612.00
2018-06-12T06:43:24.175Z,3444.00
2018-06-12T06:44:24.239Z,3392.00
2018-06-12T06:45:24.307Z,3388.00
2018-06-12T06:46:24.379Z,3416.00
2018-06-12T06:47:24.451Z,3476.00
2018-06-12T06:48:24.518Z,3580.00
2018-06-12T06:49:24.571Z,3716.00
2018-06-12T06:50:24.639Z,3876.00
2018-06-12T06:51:24.711Z,4052.00
2018-06-12T06:52:24.775Z,4236.00
2018-06-12T06:53:24.846Z,4428.00
2018-06-12T06:54:24.903Z,4616.00
2018-06-12T06:55:24.968Z,4828.00
2018-06-12T06:56:25.040Z,5036.00
2018-06-12T06:57:25.100Z,5252.00
2018-06-12T06:58:25.183Z,5496.00
2018-06-12T06:59:25.235Z,5756.00
2018-06-12T07:00:25.351Z,6016.00
2018-06-12T07:01:25.367Z,6256.00
2018-06-12T07:02:25.451Z,6492.00
2018-06-12T07:03:25.510Z,6912.00
2018-06-12T07:04:25.571Z,8412.00
2018-06-12T07:05:25.637Z,7940.00
2018-06-12T07:06:25.699Z,7860.00
2018-06-12T07:07:25.767Z,7812.00
2018-06-12T07:08:25.843Z,8004.00
2018-06-12T07:09:25.910Z,8128.00
2018-06-12T07:10:25.963Z,7904.00
2018-06-12T07:11:26.031Z,7840.00
2018-06-12T07:12:26.099Z,7988.00
2018-06-12T07:13:26.335Z,7836.00
2018-06-12T07:14:26.231Z,7620.00
2018-06-12T07:15:26.303Z,7552.00
2018-06-12T07:16:26.367Z,7532.00
2018-06-12T07:17:26.435Z,7580.00
2018-06-12T07:18:26.507Z,7616.00
2018-06-12T07:19:26.575Z,7580.00
2018-06-12T07:20:26.635Z,7384.00
2018-06-12T07:21:26.699Z,7080.00
2018-06-12T07:22:26.767Z,6788.00
2018-06-12T07:23:26.844Z,6508.00
2018-06-12T07:24:26.907Z,6208.00
2018-06-12T07:25:26.967Z,5856.00
2018-06-12T07:26:27.035Z,5460.00
2018-06-12T07:27:27.104Z,5084.00
2018-06-12T07:28:27.320Z,4788.00
2018-06-12T07:29:27.236Z,4600.00
2018-06-12T07:30:27.303Z,4504.00
2018-06-12T07:31:27.372Z,4460.00
2018-06-12T07:32:27.440Z,4452.00
2018-06-12T07:33:27.514Z,4436.00
2018-06-12T07:34:27.580Z,4404.00
2018-06-12T07:35:27.644Z,4376.00
2018-06-12T07:36:27.705Z,4356.00
2018-06-12T07:37:27.777Z,4360.00
2018-06-12T07:38:27.849Z,4352.00
2018-06-12T07:39:27.920Z,4248.00
2018-06-12T07:40:27.973Z,4172.00
2018-06-12T07:41:28.041Z,4104.00
2018-06-12T07:42:28.109Z,4036.00
2018-06-12T07:43:28.180Z,3984.00
2018-06-12T07:44:28.349Z,3928.00
2018-06-12T07:45:28.309Z,3872.00
2018-06-12T07:46:28.373Z,3820.00
2018-06-12T07:47:28.441Z,3772.00
2018-06-12T07:48:28.513Z,3720.00
2018-06-12T07:49:28.582Z,3680.00
2018-06-12T07:50:28.650Z,3640.00
2018-06-12T07:51:28.710Z,3608.00
2018-06-12T07:52:28.774Z,3600.00
2018-06-12T07:53:28.842Z,3596.00
2018-06-12T07:54:28.914Z,3596.00
2018-06-12T07:55:28.981Z,3604.00
2018-06-12T07:56:29.042Z,3628.00
2018-06-12T07:57:29.106Z,3660.00
2018-06-12T07:58:29.178Z,3688.00
2018-06-12T07:59:29.478Z,3716.00
2018-06-12T08:00:29.310Z,3748.00
2018-06-12T08:01:29.374Z,3788.00
2018-06-12T08:02:29.442Z,3852.00
2018-06-12T08:03:29.506Z,3944.00
2018-06-12T08:04:29.579Z,4052.00
2018-06-12T08:05:29.647Z,4180.00
2018-06-12T08:06:29.707Z,4316.00
2018-06-12T08:07:29.775Z,4468.00
2018-06-12T08:08:29.838Z,4620.00
2018-06-12T08:09:29.910Z,4776.00
2018-06-12T08:10:29.981Z,4952.00
2018-06-12T08:11:30.039Z,5144.00
2018-06-12T08:12:30.107Z,5336.00
2018-06-12T08:13:30.171Z,5472.00
2018-06-12T08:14:30.355Z,5564.00
2018-06-12T08:15:30.307Z,5612.00
2018-06-12T08:16:30.372Z,5640.00
2018-06-12T08:17:30.439Z,5668.00
2018-06-12T08:18:30.532Z,5720.00
2018-06-12T08:19:30.579Z,5808.00
2018-06-12T08:20:30.643Z,5964.00
2018-06-12T08:21:30.707Z,6204.00
2018-06-12T08:22:30.772Z,6408.00
2018-06-12T08:23:30.840Z,6592.00
2018-06-12T08:24:30.912Z,6708.00
2018-06-12T08:25:30.980Z,6752.00
2018-06-12T08:26:31.040Z,6748.00
2018-06-12T08:27:31.108Z,6724.00
2018-06-12T08:28:31.176Z,6752.00
2018-06-12T08:29:31.240Z,6880.00
2018-06-12T08:30:31.364Z,7024.00
2018-06-12T08:31:31.376Z,7172.00
2018-06-12T08:32:31.447Z,7280.00
2018-06-12T08:33:31.508Z,7360.00
2018-06-12T08:34:31.576Z,7404.00
2018-06-12T08:35:31.707Z,7388.00
2018-06-12T08:36:31.722Z,7364.00
2018-06-12T08:37:31.780Z,7324.00
2018-06-12T08:38:31.848Z,7268.00
2018-06-12T08:39:31.912Z,7192.00
2018-06-12T08:40:31.989Z,7076.00
2018-06-12T08:41:32.058Z,6964.00
2018-06-12T08:42:32.121Z,6848.00
2018-06-12T08:43:32.184Z,6728.00
2018-06-12T08:44:32.252Z,6608.00
2018-06-12T08:45:32.340Z,6484.00
2018-06-12T08:46:32.423Z,6368.00
2018-06-12T08:47:32.457Z,6284.00
2018-06-12T08:48:32.521Z,6240.00
2018-06-12T08:49:32.589Z,6252.00
2018-06-12T08:50:32.665Z,6240.00
2018-06-12T08:51:32.733Z,6244.00
2018-06-12T08:52:32.792Z,6280.00
2018-06-12T08:53:32.861Z,6364.00
2018-06-12T08:54:32.929Z,6476.00
2018-06-12T08:55:33.005Z,6440.00
2018-06-12T08:56:33.073Z,6576.00
2018-06-12T08:57:33.133Z,6524.00
2018-06-12T08:58:33.201Z,6416.00
2018-06-12T08:59:33.272Z,6340.00
2018-06-12T09:00:33.369Z,6292.00
2018-06-12T09:01:33.405Z,6264.00
2018-06-12T09:02:33.474Z,6236.00
2018-06-12T09:03:33.541Z,6192.00
2018-06-12T09:04:33.609Z,6124.00
2018-06-12T09:05:33.687Z,6044.00
2018-06-12T09:06:33.754Z,5960.00
2018-06-12T09:07:33.814Z,5876.00
2018-06-12T09:08:33.882Z,5788.00
2018-06-12T09:09:33.950Z,5720.00
2018-06-12T09:10:34.026Z,5664.00
2018-06-12T09:11:34.090Z,5620.00
2018-06-12T09:12:34.157Z,5620.00
2018-06-12T09:13:34.221Z,5644.00
2018-06-12T09:14:34.414Z,5696.00
2018-06-12T09:15:34.374Z,5740.00
2018-06-12T09:16:34.438Z,5792.00
2018-06-12T09:17:34.496Z,5836.00
2018-06-12T09:18:34.562Z,5892.00
2018-06-12T09:19:34.632Z,5944.00
2018-06-12T09:20:34.702Z,6012.00
2018-06-12T09:21:34.770Z,6092.00
2018-06-12T09:22:34.834Z,6200.00
2018-06-12T09:23:34.901Z,6344.00
2018-06-12T09:24:34.970Z,6432.00
2018-06-12T09:25:35.046Z,6528.00
2018-06-12T09:26:35.110Z,6668.00
2018-06-12T09:27:35.174Z,6824.00
2018-06-12T09:28:35.244Z,7032.00
2018-06-12T09:29:35.310Z,6904.00
2018-06-12T09:30:35.482Z,6844.00
2018-06-12T09:31:35.446Z,6740.00
2018-06-12T09:32:35.515Z,6572.00
2018-06-12T09:33:35.582Z,6440.00
2018-06-12T09:34:35.650Z,6412.00
2018-06-12T09:35:35.726Z,6344.00
2018-06-12T09:36:35.796Z,6292.00
2018-06-12T09:37:35.854Z,6176.00
2018-06-12T09:38:35.922Z,6140.00
2018-06-12T09:39:35.991Z,6136.00
2018-06-12T09:40:36.066Z,6152.00
2018-06-12T09:41:36.135Z,6148.00
2018-06-12T09:42:36.195Z,6152.00
2018-06-12T09:43:36.263Z,6168.00
2018-06-12T09:44:36.335Z,6188.00
2018-06-12T09:45:36.410Z,6172.00
2018-06-12T09:46:36.475Z,6156.00
2018-06-12T09:47:36.539Z,6092.00
2018-06-12T09:48:36.603Z,6036.00
2018-06-12T09:49:36.675Z,5972.00
2018-06-12T09:50:36.747Z,5912.00
2018-06-12T09:51:36.815Z,5864.00
2018-06-12T09:52:36.879Z,5832.00
2018-06-12T09:53:36.947Z,5828.00
2018-06-12T09:54:37.015Z,5852.00
2018-06-12T09:55:37.111Z,5872.00
2018-06-12T09:56:37.151Z,5888.00
2018-06-12T09:57:37.256Z,5900.00
2018-06-12T09:58:37.287Z,5936.00
2018-06-12T09:59:37.356Z,5980.00
2018-06-12T10:00:37.431Z,6024.00
2018-06-12T10:01:37.499Z,6024.00
2018-06-12T10:02:37.559Z,6152.00
2018-06-12T10:03:37.628Z,6216.00
2018-06-12T10:04:37.697Z,6264.00
2018-06-12T10:05:37.771Z,6292.00
2018-06-12T10:06:37.842Z,6304.00
2018-06-12T10:07:37.909Z,6308.00
2018-06-12T10:08:37.972Z,6312.00
2018-06-12T10:09:38.040Z,6304.00
2018-06-12T10:10:38.228Z,6292.00
2018-06-12T10:11:38.180Z,6292.00
2018-06-12T10:12:38.244Z,6280.00
2018-06-12T10:13:38.312Z,6252.00
2018-06-12T10:14:38.380Z,6220.00
2018-06-12T10:15:38.456Z,6200.00
2018-06-12T10:16:38.524Z,6188.00
2018-06-12T10:17:38.588Z,6192.00
2018-06-12T10:18:38.656Z,6192.00
2018-06-12T10:19:38.725Z,6180.00
2018-06-12T10:20:38.801Z,6180.00
2018-06-12T10:21:38.868Z,6188.00
2018-06-12T10:22:38.941Z,6200.00
2018-06-12T10:23:39.002Z,6196.00
2018-06-12T10:24:39.069Z,6196.00
2018-06-12T10:25:39.289Z,6196.00
2018-06-12T10:26:39.205Z,6212.00
2018-06-12T10:27:39.273Z,6212.00
2018-06-12T10:28:39.341Z,6200.00
2018-06-12T10:29:39.409Z,6192.00
2018-06-12T10:30:39.489Z,6180.00
2018-06-12T10:31:39.554Z,6176.00
2018-06-12T10:32:39.617Z,6168.00
2018-06-12T10:33:39.688Z,6172.00
2018-06-12T10:34:39.753Z,6172.00
2018-06-12T10:35:39.829Z,6176.00
2018-06-12T10:36:39.893Z,6188.00
2018-06-12T10:37:39.957Z,6204.00
2018-06-12T10:38:40.030Z,6212.00
2018-06-12T10:39:40.098Z,6212.00
2018-06-12T10:40:40.177Z,6196.00
2018-06-12T10:41:40.234Z,6176.00
2018-06-12T10:42:40.301Z,6136.00
2018-06-12T10:43:40.395Z,6084.00
2018-06-12T10:44:40.437Z,6020.00
2018-06-12T10:45:40.517Z,5952.00
2018-06-12T10:46:40.581Z,5876.00
2018-06-12T10:47:40.648Z,5792.00
2018-06-12T10:48:40.713Z,5708.00
2018-06-12T10:49:40.781Z,5616.00
2018-06-12T10:50:40.855Z,5524.00
2018-06-12T10:51:40.929Z,5428.00
2018-06-12T10:52:40.990Z,5324.00
2018-06-12T10:53:41.058Z,5220.00
2018-06-12T10:54:41.126Z,5116.00
2018-06-12T10:55:41.218Z,5004.00
2018-06-12T10:56:41.262Z,4896.00
2018-06-12T10:57:41.336Z,4792.00
2018-06-12T10:58:41.401Z,4700.00
2018-06-12T10:59:41.473Z,4616.00
2018-06-12T11:00:41.542Z,4540.00
2018-06-12T11:01:41.619Z,4480.00
2018-06-12T11:02:41.674Z,4436.00
2018-06-12T11:03:41.743Z,4400.00
2018-06-12T11:04:41.811Z,4364.00
2018-06-12T11:05:41.886Z,4340.00
2018-06-12T11:06:41.955Z,4308.00
2018-06-12T11:07:42.019Z,4276.00
2018-06-12T11:08:42.087Z,4248.00
2018-06-12T11:09:42.155Z,4228.00
2018-06-12T11:10:42.383Z,4208.00
2018-06-12T11:11:42.291Z,4200.00
2018-06-12T11:12:42.359Z,4180.00
2018-06-12T11:13:42.426Z,4164.00
2018-06-12T11:14:42.497Z,4148.00
2018-06-12T11:15:42.571Z,4136.00
2018-06-12T11:16:42.639Z,4120.00
2018-06-12T11:17:42.699Z,4116.00
2018-06-12T11:18:42.767Z,4108.00
2018-06-12T11:19:42.835Z,4096.00
2018-06-12T11:20:43.023Z,4080.00
2018-06-12T11:21:42.983Z,4060.00
2018-06-12T11:22:43.039Z,4036.00
2018-06-12T11:23:43.111Z,4012.00
2018-06-12T11:24:43.175Z,4008.00
2018-06-12T11:25:43.243Z,4008.00
2018-06-12T11:26:43.419Z,4020.00
2018-06-12T11:27:43.383Z,4040.00
2018-06-12T11:28:43.448Z,4072.00
2018-06-12T11:29:43.519Z,4108.00
2018-06-12T11:30:43.583Z,4148.00
2018-06-12T11:31:43.659Z,4188.00
2018-06-12T11:32:43.727Z,4228.00
2018-06-12T11:33:43.787Z,4272.00
2018-06-12T11:34:43.863Z,4312.00
2018-06-12T11:35:43.928Z,4364.00
2018-06-12T11:36:44.000Z,4428.00
2018-06-12T11:37:44.070Z,4512.00
2018-06-12T11:38:44.132Z,4608.00
2018-06-12T11:39:44.199Z,4720.00
2018-06-12T11:40:44.268Z,4844.00
2018-06-12T11:41:44.347Z,4972.00
2018-06-12T11:42:44.404Z,5116.00
2018-06-12T11:43:44.471Z,5276.00
2018-06-12T11:44:44.544Z,5452.00
2018-06-12T11:45:44.611Z,5644.00
2018-06-12T11:46:44.680Z,5840.00
2018-06-12T11:47:44.752Z,6084.00
2018-06-12T11:48:44.813Z,6364.00
2018-06-12T11:49:44.880Z,6684.00
2018-06-12T11:50:44.948Z,7004.00
2018-06-12T11:51:45.029Z,7344.00
2018-06-12T11:52:45.092Z,7532.00
2018-06-12T11:53:45.151Z,7928.00
2018-06-12T11:54:45.220Z,8152.00
2018-06-12T11:55:45.295Z,8260.00
2018-06-12T11:56:45.520Z,8488.00
2018-06-12T11:57:45.427Z,8560.00
2018-06-12T11:58:45.496Z,8804.00
2018-06-12T11:59:45.565Z,8800.00
2018-06-12T12:00:45.633Z,8296.00
2018-06-12T12:01:45.759Z,8232.00
2018-06-12T12:02:45.780Z,8408.00
2018-06-12T12:03:45.841Z,8020.00
2018-06-12T12:04:45.908Z,8000.00
2018-06-12T12:05:45.977Z,7848.00
2018-06-12T12:06:46.067Z,7700.00
2018-06-12T12:07:46.121Z,7748.00
2018-06-12T12:08:46.188Z,7628.00
2018-06-12T12:09:46.253Z,7484.00
2018-06-12T12:10:46.320Z,7400.00
2018-06-12T12:11:46.396Z,7340.00
2018-06-12T12:12:46.468Z,7300.00
2018-06-12T12:13:46.529Z,7328.00
2018-06-12T12:14:46.601Z,7168.00
2018-06-12T12:15:46.669Z,6980.00
2018-06-12T12:16:46.745Z,6868.00
2018-06-12T12:17:46.813Z,6848.00
2018-06-12T12:18:46.877Z,6836.00
2018-06-12T12:19:46.944Z,6800.00
2018-06-12T12:20:47.015Z,6732.00
2018-06-12T12:21:47.084Z,6656.00
2018-06-12T12:22:47.169Z,6548.00
2018-06-12T12:23:47.224Z,6404.00
2018-06-12T12:24:47.293Z,6220.00
2018-06-12T12:25:47.360Z,6008.00
2018-06-12T12:26:47.433Z,5740.00
2018-06-12T12:27:47.509Z,5420.00
2018-06-12T12:28:47.577Z,5072.00